createdAt,value
2022-11-24T00:00:06.634Z,16.23
2022-11-24T00:00:38.359Z,14.60
2022-11-24T00:01:16.408Z,15.82
2022-11-24T00:01:48.307Z,17.10
2022-11-24T00:02:20.303Z,21.33
2022-11-24T00:02:52.902Z,21.33
2022-11-24T00:03:24.858Z,20.30
2022-11-24T00:04:05.406Z,20.83
2022-11-24T00:04:37.386Z,19.17
2022-11-24T00:05:09.250Z,17.90
2022-11-24T00:05:41.093Z,20.95
2022-11-24T00:06:15.755Z,20.35
2022-11-24T00:06:47.620Z,18.92
2022-11-24T00:07:19.564Z,19.17
2022-11-24T00:07:51.483Z,18.27
2022-11-24T00:08:23.343Z,19.37
2022-11-24T00:08:55.444Z,18.80
2022-11-24T00:09:27.328Z,16.55
2022-11-24T00:09:59.130Z,17.40
2022-11-24T00:10:30.972Z,15.63
2022-11-24T00:11:24.175Z,14.30
2022-11-24T00:11:56.333Z,11.32
2022-11-24T00:12:28.164Z,11.48
2022-11-24T00:13:00.010Z,11.63
2022-11-24T00:13:33.486Z,12.18
2022-11-24T00:14:06.547Z,11.82
2022-11-24T00:14:38.385Z,11.90
2022-11-24T00:15:10.411Z,11.02
2022-11-24T00:15:42.230Z,12.18
2022-11-24T00:16:19.723Z,10.57
2022-11-24T00:16:51.672Z,10.35
2022-11-24T00:17:24.300Z,9.93
2022-11-24T00:17:56.543Z,9.80
2022-11-24T00:18:28.365Z,10.93
2022-11-24T00:19:02.002Z,10.20
2022-11-24T00:19:33.957Z,10.02
2022-11-24T00:20:06.402Z,9.98
2022-11-24T00:20:38.252Z,9.65
2022-11-24T00:21:10.182Z,9.80
2022-11-24T00:21:42.535Z,10.10
2022-11-24T00:22:14.359Z,10.20
2022-11-24T00:22:46.503Z,9.88
2022-11-24T00:23:18.294Z,9.90
2022-11-24T00:23:51.234Z,10.30
2022-11-24T00:24:23.057Z,10.43
2022-11-24T00:24:54.875Z,10.45
2022-11-24T00:25:26.733Z,9.95
2022-11-24T00:26:16.442Z,9.68
2022-11-24T00:26:48.530Z,8.73
2022-11-24T00:27:20.420Z,9.15
2022-11-24T00:27:52.815Z,10.35
2022-11-24T00:28:24.804Z,10.68
2022-11-24T00:29:03.349Z,9.60
2022-11-24T00:29:35.165Z,9.57
2022-11-24T00:30:07.519Z,9.05
2022-11-24T00:30:39.456Z,10.05
2022-11-24T00:31:20.963Z,9.43
2022-11-24T00:31:52.927Z,9.43
2022-11-24T00:32:24.810Z,9.23
2022-11-24T00:32:56.914Z,10.05
2022-11-24T00:33:28.782Z,9.02
2022-11-24T00:34:02.695Z,9.25
2022-11-24T00:34:34.901Z,10.18
2022-11-24T00:35:07.729Z,9.95
2022-11-24T00:35:39.639Z,10.02
2022-11-24T00:36:11.547Z,10.25
2022-11-24T00:36:43.650Z,10.50
2022-11-24T00:37:15.503Z,9.35
2022-11-24T00:37:47.426Z,9.40
2022-11-24T00:38:19.572Z,9.52
2022-11-24T00:38:55.707Z,9.88
2022-11-24T00:39:27.559Z,9.48
2022-11-24T00:39:59.369Z,9.60
2022-11-24T00:40:34.993Z,9.20
2022-11-24T00:41:07.352Z,9.43
2022-11-24T00:41:39.592Z,9.57
2022-11-24T00:42:11.436Z,9.38
2022-11-24T00:42:43.238Z,10.02
2022-11-24T00:43:15.187Z,10.15
2022-11-24T00:43:47.316Z,10.23
2022-11-24T00:44:19.134Z,10.15
2022-11-24T00:44:50.952Z,9.93
2022-11-24T00:45:22.768Z,9.73
2022-11-24T00:45:54.748Z,9.23
2022-11-24T00:46:27.976Z,9.32
2022-11-24T00:47:00.074Z,8.88
2022-11-24T00:47:33.001Z,9.85
2022-11-24T00:48:04.936Z,10.52
2022-11-24T00:48:36.869Z,10.25
2022-11-24T00:49:09.407Z,9.45
2022-11-24T00:49:41.248Z,9.80
2022-11-24T00:50:13.129Z,9.65
2022-11-24T00:50:44.941Z,10.00
2022-11-24T00:51:18.557Z,10.30
2022-11-24T00:51:50.466Z,10.45
2022-11-24T00:52:22.279Z,11.75
2022-11-24T00:52:54.098Z,11.43
2022-11-24T00:53:26.388Z,11.60
2022-11-24T00:53:59.497Z,12.70
2022-11-24T00:54:31.915Z,11.88
2022-11-24T00:55:04.189Z,11.73
2022-11-24T00:55:36.026Z,12.50
2022-11-24T00:56:08.746Z,11.45
2022-11-24T00:56:40.631Z,11.12
2022-11-24T00:57:12.510Z,9.73
2022-11-24T00:57:44.324Z,9.55
2022-11-24T00:58:16.156Z,9.80
2022-11-24T00:58:47.978Z,9.82
2022-11-24T00:59:19.835Z,8.93
2022-11-24T00:59:51.947Z,9.75
2022-11-24T01:00:23.806Z,8.77
2022-11-24T01:01:01.381Z,9.20
2022-11-24T01:01:33.369Z,8.77
2022-11-24T01:02:05.293Z,8.43
2022-11-24T01:02:37.353Z,8.82
2022-11-24T01:03:09.504Z,8.32
2022-11-24T01:03:42.462Z,9.73
2022-11-24T01:04:14.996Z,9.45
2022-11-24T01:04:46.796Z,8.68
2022-11-24T01:05:19.271Z,8.68
2022-11-24T01:05:51.145Z,9.48
2022-11-24T01:06:25.199Z,9.13
2022-11-24T01:06:57.072Z,8.48
2022-11-24T01:07:28.922Z,8.95
2022-11-24T01:08:00.756Z,8.73
2022-11-24T01:08:33.316Z,8.60
2022-11-24T01:09:05.295Z,9.10
2022-11-24T01:09:37.818Z,9.20
2022-11-24T01:10:09.917Z,10.68
2022-11-24T01:10:42.239Z,12.27
2022-11-24T01:11:16.319Z,10.82
2022-11-24T01:12:04.016Z,10.02
2022-11-24T01:12:35.927Z,9.27
2022-11-24T01:13:07.794Z,8.93
2022-11-24T01:13:41.077Z,9.88
2022-11-24T01:14:12.892Z,10.40
2022-11-24T01:14:44.753Z,10.10
2022-11-24T01:15:16.659Z,10.65
2022-11-24T01:15:48.848Z,11.25
2022-11-24T01:16:31.521Z,11.23
2022-11-24T01:17:03.685Z,9.50
2022-11-24T01:17:35.543Z,9.38
2022-11-24T01:18:07.397Z,10.57
2022-11-24T01:18:39.357Z,10.55
2022-11-24T01:19:11.177Z,10.45
2022-11-24T01:19:43.033Z,11.90
2022-11-24T01:20:15.172Z,10.73
2022-11-24T01:20:46.989Z,10.50
2022-11-24T01:21:20.206Z,12.13
2022-11-24T01:21:52.396Z,11.55
2022-11-24T01:22:26.443Z,11.38
2022-11-24T01:22:58.283Z,11.25
2022-11-24T01:23:30.216Z,10.32
2022-11-24T01:24:02.455Z,9.75
2022-11-24T01:24:34.407Z,10.35
2022-11-24T01:25:07.218Z,9.57
2022-11-24T01:25:40.096Z,10.18
2022-11-24T01:26:15.007Z,10.23
2022-11-24T01:26:47.190Z,11.12
2022-11-24T01:27:19.031Z,10.68
2022-11-24T01:27:50.932Z,10.80
2022-11-24T01:28:22.791Z,10.32
2022-11-24T01:28:56.500Z,11.45
2022-11-24T01:29:28.483Z,11.00
2022-11-24T01:30:00.468Z,10.77
2022-11-24T01:30:32.695Z,10.55
2022-11-24T01:31:07.171Z,10.15
2022-11-24T01:31:39.406Z,10.32
2022-11-24T01:32:11.545Z,10.55
2022-11-24T01:32:43.381Z,11.20
2022-11-24T01:33:15.235Z,9.88
2022-11-24T01:33:47.075Z,10.23
2022-11-24T01:34:19.185Z,10.43
2022-11-24T01:34:51.054Z,9.85
2022-11-24T01:35:22.896Z,10.90
2022-11-24T01:35:54.723Z,10.93
2022-11-24T01:36:26.666Z,10.55
2022-11-24T01:36:58.464Z,11.35
2022-11-24T01:37:30.671Z,10.68
2022-11-24T01:38:02.488Z,9.32
2022-11-24T01:38:34.314Z,10.93
2022-11-24T01:39:06.167Z,10.60
2022-11-24T01:39:38.000Z,10.82
2022-11-24T01:40:10.665Z,11.23
2022-11-24T01:40:42.564Z,11.70
2022-11-24T01:41:17.960Z,13.00
2022-11-24T01:41:49.851Z,11.30
2022-11-24T01:42:21.730Z,11.23
2022-11-24T01:42:54.059Z,11.05
2022-11-24T01:43:25.918Z,10.57
2022-11-24T01:43:57.854Z,10.60
2022-11-24T01:44:31.288Z,10.15
2022-11-24T01:45:40.613Z,10.88
2022-11-24T01:46:31.085Z,9.98
2022-11-24T01:47:13.554Z,9.30
2022-11-24T01:47:45.448Z,10.27
2022-11-24T01:48:35.065Z,10.80
2022-11-24T01:49:33.860Z,9.60
2022-11-24T01:50:13.335Z,9.95
2022-11-24T01:50:46.426Z,9.85
2022-11-24T01:51:23.812Z,11.05
2022-11-24T01:52:01.417Z,10.82
2022-11-24T01:52:51.553Z,10.88
2022-11-24T01:53:24.506Z,9.75
2022-11-24T01:54:20.261Z,9.95
2022-11-24T01:54:59.602Z,10.02
2022-11-24T01:55:36.514Z,9.82
2022-11-24T01:56:09.438Z,10.70
2022-11-24T01:56:45.806Z,9.73
2022-11-24T01:57:23.705Z,9.73
2022-11-24T01:58:05.209Z,10.80
2022-11-24T01:58:39.867Z,10.55
2022-11-24T01:59:14.465Z,9.95
2022-11-24T01:59:48.474Z,10.48
2022-11-24T02:00:21.730Z,9.95
2022-11-24T02:00:54.334Z,11.18
2022-11-24T02:01:26.390Z,9.18
2022-11-24T02:01:58.478Z,9.65
2022-11-24T02:02:30.715Z,10.30
2022-11-24T02:03:02.754Z,10.35
2022-11-24T02:03:38.263Z,10.35
2022-11-24T02:04:17.729Z,9.85
2022-11-24T02:04:51.249Z,10.07
2022-11-24T02:05:26.190Z,10.02
2022-11-24T02:06:08.080Z,11.07
2022-11-24T02:06:42.710Z,9.65
2022-11-24T02:07:15.065Z,9.52
2022-11-24T02:07:48.020Z,10.50
2022-11-24T02:08:49.155Z,9.40
2022-11-24T02:09:26.214Z,10.23
2022-11-24T02:10:03.960Z,10.13
2022-11-24T02:10:36.966Z,10.05
2022-11-24T02:11:08.891Z,9.65
2022-11-24T02:11:41.733Z,10.52
2022-11-24T02:12:13.663Z,9.98
2022-11-24T02:12:47.713Z,10.05
2022-11-24T02:13:19.936Z,10.20
2022-11-24T02:13:54.248Z,9.88
2022-11-24T02:14:27.523Z,9.82
2022-11-24T02:14:59.758Z,9.32
2022-11-24T02:15:32.457Z,10.57
2022-11-24T02:16:07.657Z,10.27
2022-11-24T02:16:41.609Z,9.60
2022-11-24T02:17:13.479Z,9.95
2022-11-24T02:17:45.471Z,10.00
2022-11-24T02:18:17.304Z,9.70
2022-11-24T02:18:49.475Z,10.10
2022-11-24T02:19:27.059Z,10.20
2022-11-24T02:20:01.910Z,10.15
2022-11-24T02:20:34.197Z,10.80
2022-11-24T02:21:07.379Z,10.10
2022-11-24T02:21:39.250Z,9.65
2022-11-24T02:22:31.239Z,10.60
2022-11-24T02:23:31.740Z,9.05
2022-11-24T02:24:30.319Z,10.05
2022-11-24T02:25:10.030Z,9.82
2022-11-24T02:25:50.118Z,9.70
2022-11-24T02:26:30.982Z,10.13
2022-11-24T02:27:03.785Z,10.32
2022-11-24T02:27:36.357Z,10.10
2022-11-24T02:28:13.632Z,10.70
2022-11-24T02:28:46.214Z,10.00
2022-11-24T02:29:19.859Z,10.48
2022-11-24T02:29:52.147Z,9.82
2022-11-24T02:30:24.604Z,11.00
2022-11-24T02:30:58.577Z,10.23
2022-11-24T02:31:30.717Z,9.93
2022-11-24T02:32:06.782Z,11.05
2022-11-24T02:32:41.394Z,10.95
2022-11-24T02:33:13.828Z,10.27
2022-11-24T02:33:45.765Z,10.70
2022-11-24T02:34:17.635Z,10.90
2022-11-24T02:34:49.479Z,10.98
2022-11-24T02:35:21.502Z,11.55
2022-11-24T02:35:53.933Z,10.77
2022-11-24T02:36:25.839Z,10.90
2022-11-24T02:36:57.696Z,11.45
2022-11-24T02:37:29.606Z,11.50
2022-11-24T02:38:01.431Z,11.55
2022-11-24T02:38:35.401Z,11.48
2022-11-24T02:39:15.101Z,11.15
2022-11-24T02:39:46.914Z,11.40
2022-11-24T02:40:25.105Z,11.80
2022-11-24T02:41:00.551Z,10.85
2022-11-24T02:41:32.442Z,10.30
2022-11-24T02:42:08.997Z,11.02
2022-11-24T02:42:44.981Z,10.25
2022-11-24T02:43:23.349Z,9.85
2022-11-24T02:43:58.408Z,10.80
2022-11-24T02:44:37.961Z,11.10
2022-11-24T02:45:11.971Z,9.70
2022-11-24T02:45:43.850Z,10.60
2022-11-24T02:46:16.109Z,10.48
2022-11-24T02:46:48.006Z,11.10
2022-11-24T02:47:19.846Z,11.05
2022-11-24T02:47:51.711Z,10.57
2022-11-24T02:48:23.911Z,10.52
2022-11-24T02:48:55.788Z,11.40
2022-11-24T02:49:27.591Z,10.43
2022-11-24T02:49:59.431Z,10.73
2022-11-24T02:50:31.258Z,10.88
2022-11-24T02:51:03.687Z,10.32
2022-11-24T02:51:35.820Z,10.98
2022-11-24T02:52:08.458Z,10.77
2022-11-24T02:52:40.285Z,11.32
2022-11-24T02:53:12.176Z,10.77
2022-11-24T02:53:45.006Z,10.80
2022-11-24T02:54:16.820Z,11.25
2022-11-24T02:54:48.699Z,10.20
2022-11-24T02:55:20.583Z,10.70
2022-11-24T02:55:53.159Z,10.85
2022-11-24T02:56:26.778Z,10.98
2022-11-24T02:56:59.348Z,10.52
2022-11-24T02:57:31.389Z,9.98
2022-11-24T02:58:03.280Z,10.90
2022-11-24T02:58:35.234Z,10.30
2022-11-24T02:59:07.070Z,10.65
2022-11-24T02:59:38.980Z,10.32
2022-11-24T03:00:11.681Z,11.25
2022-11-24T03:00:43.526Z,11.02
2022-11-24T03:01:15.460Z,10.60
2022-11-24T03:01:47.437Z,10.02
2022-11-24T03:02:19.654Z,12.00
2022-11-24T03:02:51.645Z,10.43
2022-11-24T03:03:24.202Z,10.93
2022-11-24T03:03:56.037Z,11.75
2022-11-24T03:04:27.837Z,10.88
2022-11-24T03:04:59.698Z,11.27
2022-11-24T03:05:31.512Z,10.32
2022-11-24T03:06:03.374Z,12.15
2022-11-24T03:06:35.206Z,11.35
2022-11-24T03:07:07.273Z,11.38
2022-11-24T03:07:39.535Z,12.27
2022-11-24T03:08:12.960Z,11.68
2022-11-24T03:08:44.852Z,11.98
2022-11-24T03:09:16.675Z,10.98
2022-11-24T03:09:48.485Z,11.65
2022-11-24T03:10:20.496Z,11.63
2022-11-24T03:10:52.381Z,11.80
2022-11-24T03:11:24.256Z,10.90
2022-11-24T03:11:56.145Z,11.10
2022-11-24T03:12:28.026Z,10.25
2022-11-24T03:13:00.178Z,11.15
2022-11-24T03:13:31.996Z,11.32
2022-11-24T03:14:04.861Z,12.18
2022-11-24T03:14:36.943Z,11.57
2022-11-24T03:15:09.333Z,10.95
2022-11-24T03:15:41.338Z,11.05
2022-11-24T03:16:13.225Z,10.40
2022-11-24T03:16:45.075Z,11.60
2022-11-24T03:17:16.976Z,10.65
2022-11-24T03:17:48.786Z,10.95
2022-11-24T03:18:20.911Z,11.00
2022-11-24T03:18:53.486Z,10.57
2022-11-24T03:19:25.334Z,11.05
2022-11-24T03:20:03.006Z,11.55
2022-11-24T03:20:36.314Z,11.30
2022-11-24T03:21:08.208Z,10.70
2022-11-24T03:21:40.050Z,11.85
2022-11-24T03:22:13.484Z,11.40
2022-11-24T03:22:45.321Z,11.27
2022-11-24T03:23:17.188Z,10.95
2022-11-24T03:23:49.574Z,11.12
2022-11-24T03:24:21.520Z,12.35
2022-11-24T03:24:53.407Z,11.12
2022-11-24T03:25:25.360Z,11.45
2022-11-24T03:26:08.038Z,12.32
2022-11-24T03:26:39.960Z,11.30
2022-11-24T03:27:11.787Z,10.80
2022-11-24T03:27:44.038Z,10.63
2022-11-24T03:28:16.091Z,10.77
2022-11-24T03:28:48.027Z,11.65
2022-11-24T03:29:20.194Z,10.93
2022-11-24T03:29:52.054Z,12.00
2022-11-24T03:30:23.977Z,12.88
2022-11-24T03:30:55.829Z,11.15
2022-11-24T03:31:27.961Z,11.60
2022-11-24T03:32:00.275Z,11.73
2022-11-24T03:32:32.081Z,11.40
2022-11-24T03:33:05.093Z,11.10
2022-11-24T03:33:37.763Z,11.93
2022-11-24T03:34:09.983Z,12.63
2022-11-24T03:34:42.102Z,11.35
2022-11-24T03:35:13.948Z,11.63
2022-11-24T03:35:46.071Z,12.25
2022-11-24T03:36:18.706Z,11.60
2022-11-24T03:36:50.790Z,11.30
2022-11-24T03:37:22.662Z,11.77
2022-11-24T03:37:54.502Z,11.95
2022-11-24T03:38:26.327Z,12.20
2022-11-24T03:38:58.171Z,12.27
2022-11-24T03:39:30.063Z,12.07
2022-11-24T03:40:02.176Z,12.88
2022-11-24T03:40:34.059Z,12.98
2022-11-24T03:41:05.943Z,13.05
2022-11-24T03:41:37.842Z,13.20
2022-11-24T03:42:09.761Z,12.20
2022-11-24T03:42:41.608Z,12.50
2022-11-24T03:43:13.438Z,13.13
2022-11-24T03:43:45.250Z,12.73
2022-11-24T03:44:17.996Z,13.25
2022-11-24T03:44:49.968Z,13.32
2022-11-24T03:45:45.047Z,13.77
2022-11-24T03:46:14.443Z,12.52
2022-11-24T03:46:46.404Z,13.10
2022-11-24T03:47:18.257Z,14.18
2022-11-24T03:47:51.800Z,14.70
2022-11-24T03:48:23.609Z,16.33
2022-11-24T03:48:55.433Z,16.15
2022-11-24T03:49:27.315Z,16.60
2022-11-24T03:49:59.172Z,17.02
2022-11-24T03:50:31.287Z,17.35
2022-11-24T03:51:03.353Z,18.33
2022-11-24T03:51:35.197Z,17.48
2022-11-24T03:52:08.360Z,18.52
2022-11-24T03:52:40.350Z,18.80
2022-11-24T03:53:12.257Z,18.62
2022-11-24T03:53:44.083Z,19.08
2022-11-24T03:54:15.960Z,21.02
2022-11-24T03:54:47.860Z,19.90
2022-11-24T03:55:19.687Z,18.90
2022-11-24T03:55:52.084Z,19.73
2022-11-24T03:56:23.899Z,20.27
2022-11-24T03:56:56.017Z,20.40
2022-11-24T03:57:27.814Z,20.40
2022-11-24T03:57:59.693Z,20.60
2022-11-24T03:58:31.567Z,20.83
2022-11-24T03:59:03.499Z,20.23
2022-11-24T03:59:35.328Z,21.10
2022-11-24T04:00:08.072Z,20.35
2022-11-24T04:00:40.465Z,19.70
2022-11-24T04:01:12.348Z,19.52
2022-11-24T04:01:44.237Z,21.08
2022-11-24T04:02:16.726Z,21.62
2022-11-24T04:02:48.781Z,21.87
2022-11-24T04:03:21.166Z,20.98
2022-11-24T04:03:53.039Z,21.10
2022-11-24T04:04:24.882Z,21.67
2022-11-24T04:04:56.802Z,21.65
2022-11-24T04:05:28.675Z,21.77
2022-11-24T04:06:00.931Z,20.48
2022-11-24T04:06:32.787Z,21.00
2022-11-24T04:07:04.595Z,21.12
2022-11-24T04:07:36.520Z,22.60
2022-11-24T04:08:08.751Z,22.10
2022-11-24T04:08:40.593Z,21.60
2022-11-24T04:09:12.425Z,21.27
2022-11-24T04:09:45.338Z,21.75
2022-11-24T04:10:17.227Z,20.73
2022-11-24T04:10:51.303Z,20.40
2022-11-24T04:11:42.267Z,20.15
2022-11-24T04:12:32.678Z,20.85
2022-11-24T04:13:10.860Z,19.83
2022-11-24T04:13:42.724Z,20.05
2022-11-24T04:14:14.725Z,20.35
2022-11-24T04:14:46.605Z,21.40
2022-11-24T04:15:19.661Z,21.58
2022-11-24T04:15:52.016Z,22.08
2022-11-24T04:16:24.268Z,21.45
2022-11-24T04:16:56.175Z,20.25
2022-11-24T04:17:28.456Z,22.05
2022-11-24T04:18:00.276Z,21.08
2022-11-24T04:18:32.238Z,21.02
2022-11-24T04:19:04.107Z,22.17
2022-11-24T04:19:35.929Z,21.42
2022-11-24T04:20:08.734Z,21.20
2022-11-24T04:20:41.412Z,21.08
2022-11-24T04:21:13.271Z,22.45
2022-11-24T04:21:45.418Z,21.75
2022-11-24T04:22:17.906Z,21.65
2022-11-24T04:22:51.842Z,21.30
2022-11-24T04:23:23.685Z,20.62
2022-11-24T04:23:55.522Z,21.80
2022-11-24T04:24:27.367Z,20.42
2022-11-24T04:24:59.175Z,21.50
2022-11-24T04:25:31.151Z,21.67
2022-11-24T04:26:02.971Z,20.90
2022-11-24T04:26:34.940Z,20.80
2022-11-24T04:27:07.012Z,20.10
2022-11-24T04:27:39.330Z,21.50
2022-11-24T04:28:11.221Z,20.65
2022-11-24T04:28:43.041Z,20.42
2022-11-24T04:29:14.874Z,19.40
2022-11-24T04:29:46.742Z,21.55
2022-11-24T04:30:19.519Z,20.17
2022-11-24T04:30:51.464Z,21.33
2022-11-24T04:31:23.396Z,20.67
2022-11-24T04:31:55.270Z,20.83
2022-11-24T04:32:27.915Z,20.52
2022-11-24T04:32:59.852Z,19.20
2022-11-24T04:33:31.935Z,19.02
2022-11-24T04:34:04.048Z,19.30
2022-11-24T04:34:36.670Z,19.83
2022-11-24T04:35:08.829Z,18.98
2022-11-24T04:35:40.752Z,19.50
2022-11-24T04:36:12.633Z,20.55
2022-11-24T04:36:44.500Z,20.08
2022-11-24T04:37:16.445Z,19.90
2022-11-24T04:37:48.610Z,18.40
2022-11-24T04:39:24.540Z,18.92
2022-11-24T04:39:25.984Z,20.12
2022-11-24T04:39:58.029Z,18.35
2022-11-24T04:40:30.226Z,18.92
2022-11-24T04:41:03.417Z,18.60
2022-11-24T04:41:35.264Z,18.70
2022-11-24T04:42:07.100Z,19.17
2022-11-24T04:42:38.955Z,18.40
2022-11-24T04:43:12.083Z,18.35
2022-11-24T04:43:43.937Z,19.23
2022-11-24T04:44:15.832Z,18.95
2022-11-24T04:44:47.726Z,18.67
2022-11-24T04:45:19.545Z,19.85
2022-11-24T04:45:51.412Z,20.25
2022-11-24T04:46:23.257Z,18.83
2022-11-24T04:46:55.215Z,20.25
2022-11-24T04:47:27.758Z,19.87
2022-11-24T04:47:59.612Z,19.35
2022-11-24T04:48:31.753Z,18.90
2022-11-24T04:49:03.781Z,19.45
2022-11-24T04:49:35.607Z,19.87
2022-11-24T04:50:09.093Z,19.55
2022-11-24T04:50:41.020Z,18.80
2022-11-24T04:51:15.139Z,20.02
2022-11-24T04:51:47.168Z,20.12
2022-11-24T04:52:20.318Z,19.48
2022-11-24T04:52:52.639Z,18.40
2022-11-24T04:53:24.450Z,18.95
2022-11-24T04:53:56.597Z,19.23
2022-11-24T04:54:28.422Z,19.95
2022-11-24T04:55:00.315Z,20.27
2022-11-24T04:55:32.158Z,19.33
2022-11-24T04:56:07.291Z,20.05
2022-11-24T04:56:40.208Z,20.20
2022-11-24T04:57:32.281Z,19.95
2022-11-24T04:58:04.127Z,18.98
2022-11-24T04:58:36.222Z,18.98
2022-11-24T04:59:11.878Z,18.25
2022-11-24T04:59:44.190Z,19.23
2022-11-24T05:00:16.832Z,18.95
2022-11-24T05:00:48.916Z,20.98
2022-11-24T05:01:20.785Z,20.15
2022-11-24T05:01:52.725Z,19.75
2022-11-24T05:02:24.665Z,20.65
2022-11-24T05:02:56.768Z,19.27
2022-11-24T05:03:28.598Z,19.67
2022-11-24T05:04:00.459Z,18.58
2022-11-24T05:04:33.001Z,19.15
2022-11-24T05:05:06.612Z,19.85
2022-11-24T05:05:38.469Z,20.15
2022-11-24T05:06:10.298Z,19.05
2022-11-24T05:06:42.299Z,20.08
2022-11-24T05:07:18.882Z,20.52
2022-11-24T05:07:51.323Z,20.58
2022-11-24T05:08:23.209Z,19.73
2022-11-24T05:08:55.082Z,19.42
2022-11-24T05:09:47.910Z,19.92
2022-11-24T05:10:37.406Z,18.92
2022-11-24T05:11:09.272Z,18.75
2022-11-24T05:11:41.101Z,18.87
2022-11-24T05:12:12.900Z,19.23
2022-11-24T05:12:49.951Z,19.30
2022-11-24T05:13:23.147Z,20.27
2022-11-24T05:13:55.052Z,19.40
2022-11-24T05:14:28.358Z,20.48
2022-11-24T05:15:01.914Z,19.05
2022-11-24T05:15:34.194Z,20.23
2022-11-24T05:16:06.360Z,18.75
2022-11-24T05:16:38.379Z,18.70
2022-11-24T05:17:10.279Z,19.45
2022-11-24T05:17:42.113Z,20.25
2022-11-24T05:18:17.474Z,19.45
2022-11-24T05:18:49.390Z,20.08
2022-11-24T05:19:21.191Z,20.25
2022-11-24T05:19:53.031Z,18.17
2022-11-24T05:20:25.567Z,19.17
2022-11-24T05:20:58.780Z,20.08
2022-11-24T05:21:30.589Z,20.23
2022-11-24T05:22:02.410Z,20.20
2022-11-24T05:22:34.512Z,19.27
2022-11-24T05:23:08.345Z,20.05
2022-11-24T05:23:40.231Z,20.20
2022-11-24T05:24:12.100Z,20.00
2022-11-24T05:24:43.897Z,20.60
2022-11-24T05:25:15.837Z,19.92
2022-11-24T05:25:48.090Z,19.17
2022-11-24T05:26:20.503Z,20.30
2022-11-24T05:26:52.365Z,19.45
2022-11-24T05:27:24.361Z,19.85
2022-11-24T05:28:02.811Z,20.65
2022-11-24T05:28:34.700Z,19.67
2022-11-24T05:29:06.590Z,21.33
2022-11-24T05:29:38.472Z,19.73
2022-11-24T05:30:11.537Z,21.23
2022-11-24T05:30:44.216Z,21.55
2022-11-24T05:31:16.127Z,20.85
2022-11-24T05:31:48.430Z,21.23
2022-11-24T05:32:20.327Z,21.33
2022-11-24T05:32:52.187Z,21.65
2022-11-24T05:33:24.149Z,22.90
2022-11-24T05:33:56.046Z,20.45
2022-11-24T05:34:28.372Z,23.33
2022-11-24T05:35:02.200Z,23.20
2022-11-24T05:35:35.559Z,23.02
2022-11-24T05:36:07.815Z,22.08
2022-11-24T05:36:54.739Z,22.23
2022-11-24T05:37:28.420Z,21.75
2022-11-24T05:38:00.214Z,22.35
2022-11-24T05:38:32.944Z,22.10
2022-11-24T05:39:04.822Z,23.35
2022-11-24T05:39:36.981Z,25.00
2022-11-24T05:40:09.179Z,23.60
2022-11-24T05:40:41.592Z,22.48
2022-11-24T05:41:13.378Z,23.60
2022-11-24T05:41:45.531Z,25.30
2022-11-24T05:42:35.895Z,24.87
2022-11-24T05:43:15.542Z,24.40
2022-11-24T05:43:47.368Z,23.80
2022-11-24T05:44:19.211Z,26.12
2022-11-24T05:44:51.798Z,26.67
2022-11-24T05:45:23.825Z,26.12
2022-11-24T05:45:59.623Z,25.73
2022-11-24T05:46:31.491Z,24.65
2022-11-24T05:47:03.430Z,26.87
2022-11-24T05:47:36.003Z,26.10
2022-11-24T05:48:10.669Z,26.45
2022-11-24T05:48:42.527Z,25.90
2022-11-24T05:49:14.414Z,28.08
2022-11-24T05:49:46.381Z,26.62
2022-11-24T05:50:20.695Z,27.42
2022-11-24T05:50:58.847Z,27.37
2022-11-24T05:51:30.894Z,27.13
2022-11-24T05:52:02.749Z,27.73
2022-11-24T05:52:35.146Z,27.40
2022-11-24T05:53:10.700Z,26.77
2022-11-24T05:53:42.828Z,26.27
2022-11-24T05:54:14.788Z,26.33
2022-11-24T05:54:46.613Z,27.42
2022-11-24T05:55:19.616Z,27.42
2022-11-24T05:55:51.537Z,28.45
2022-11-24T05:56:23.434Z,27.58
2022-11-24T05:56:56.396Z,28.73
2022-11-24T05:57:28.457Z,28.35
2022-11-24T05:58:02.371Z,28.85
2022-11-24T05:58:34.247Z,26.98
2022-11-24T05:59:09.799Z,27.58
2022-11-24T05:59:42.033Z,29.33
2022-11-24T06:00:15.124Z,28.40
2022-11-24T06:00:47.674Z,29.20
2022-11-24T06:01:19.850Z,28.77
2022-11-24T06:01:51.802Z,27.42
2022-11-24T06:02:23.783Z,29.12
2022-11-24T06:02:58.081Z,29.12
2022-11-24T06:03:29.954Z,28.42
2022-11-24T06:04:01.843Z,27.00
2022-11-24T06:04:33.957Z,29.60
2022-11-24T06:05:06.169Z,28.52
2022-11-24T06:05:38.315Z,27.65
2022-11-24T06:06:10.852Z,28.70
2022-11-24T06:06:42.883Z,28.80
2022-11-24T06:07:15.105Z,28.17
2022-11-24T06:07:47.087Z,27.75
2022-11-24T06:08:18.960Z,29.33
2022-11-24T06:08:50.827Z,27.30
2022-11-24T06:09:22.823Z,29.27
2022-11-24T06:09:54.672Z,27.35
2022-11-24T06:10:26.902Z,28.65
2022-11-24T06:11:20.515Z,29.20
2022-11-24T06:11:52.682Z,25.75
2022-11-24T06:12:24.518Z,26.05
2022-11-24T06:12:56.592Z,27.95
2022-11-24T06:13:28.489Z,27.37
2022-11-24T06:14:00.528Z,25.42
2022-11-24T06:14:32.946Z,29.02
2022-11-24T06:15:05.431Z,29.05
2022-11-24T06:15:37.811Z,28.30
2022-11-24T06:16:10.760Z,27.08
2022-11-24T06:16:42.723Z,28.23
2022-11-24T06:17:14.893Z,27.98
2022-11-24T06:17:53.789Z,27.58
2022-11-24T06:18:25.616Z,28.10
2022-11-24T06:18:57.472Z,27.73
2022-11-24T06:19:29.352Z,27.05
2022-11-24T06:20:01.186Z,29.37
2022-11-24T06:20:33.298Z,28.62
2022-11-24T06:21:11.222Z,28.05
2022-11-24T06:21:43.549Z,27.17
2022-11-24T06:22:16.014Z,28.75
2022-11-24T06:22:48.397Z,27.77
2022-11-24T06:23:20.215Z,28.35
2022-11-24T06:23:52.083Z,27.45
2022-11-24T06:24:24.079Z,28.90
2022-11-24T06:24:55.894Z,26.33
2022-11-24T06:25:29.224Z,26.10
2022-11-24T06:26:01.709Z,26.87
2022-11-24T06:26:33.699Z,27.62
2022-11-24T06:27:05.533Z,26.85
2022-11-24T06:27:37.705Z,28.23
2022-11-24T06:28:09.526Z,27.67
2022-11-24T06:28:41.683Z,28.23
2022-11-24T06:29:13.580Z,28.67
2022-11-24T06:29:46.295Z,29.27
2022-11-24T06:30:18.239Z,27.37
2022-11-24T06:30:50.078Z,28.50
2022-11-24T06:31:21.947Z,27.83
2022-11-24T06:31:53.863Z,26.33
2022-11-24T06:32:25.729Z,28.55
2022-11-24T06:32:57.896Z,28.40
2022-11-24T06:33:34.565Z,28.02
2022-11-24T06:34:07.895Z,27.13
2022-11-24T06:34:39.850Z,27.05
2022-11-24T06:35:13.235Z,29.20
2022-11-24T06:35:45.158Z,26.77
2022-11-24T06:36:17.033Z,27.80
2022-11-24T06:36:48.904Z,29.92
2022-11-24T06:37:20.802Z,26.98
2022-11-24T06:37:52.719Z,26.80
2022-11-24T06:38:24.864Z,27.70
2022-11-24T06:38:56.707Z,27.62
2022-11-24T06:39:28.576Z,27.80
2022-11-24T06:40:00.467Z,27.17
2022-11-24T06:40:32.251Z,27.37
2022-11-24T06:41:07.740Z,27.00
2022-11-24T06:41:39.595Z,29.23
2022-11-24T06:42:18.607Z,26.45
2022-11-24T06:42:51.716Z,28.67
2022-11-24T06:43:23.568Z,26.50
2022-11-24T06:43:55.699Z,26.05
2022-11-24T06:44:30.981Z,26.83
2022-11-24T06:45:08.571Z,27.02
2022-11-24T06:45:41.135Z,26.45
2022-11-24T06:46:13.435Z,26.40
2022-11-24T06:46:45.447Z,27.23
2022-11-24T06:47:17.247Z,26.62
2022-11-24T06:47:49.135Z,28.15
2022-11-24T06:48:20.990Z,27.35
2022-11-24T06:48:53.040Z,27.85
2022-11-24T06:49:25.240Z,28.70
2022-11-24T06:49:57.161Z,28.12
2022-11-24T06:50:33.402Z,29.77
2022-11-24T06:51:08.104Z,30.98
2022-11-24T06:51:40.145Z,30.23
2022-11-24T06:52:12.076Z,29.20
2022-11-24T06:52:43.959Z,30.42
2022-11-24T06:53:15.938Z,30.55
2022-11-24T06:53:47.805Z,29.45
2022-11-24T06:54:21.214Z,28.40
2022-11-24T06:54:53.732Z,28.90
2022-11-24T06:55:25.605Z,29.92
2022-11-24T06:56:01.974Z,30.58
2022-11-24T06:56:34.338Z,29.20
2022-11-24T06:57:06.695Z,29.17
2022-11-24T06:57:39.075Z,26.98
2022-11-24T06:58:10.940Z,28.58
2022-11-24T06:58:45.200Z,28.40
2022-11-24T06:59:20.615Z,25.42
2022-11-24T06:59:52.443Z,27.55
2022-11-24T07:00:25.029Z,25.95
2022-11-24T07:00:57.155Z,25.50
2022-11-24T07:01:30.281Z,25.95
2022-11-24T07:02:02.468Z,27.67
2022-11-24T07:02:34.701Z,27.35
2022-11-24T07:03:06.699Z,27.20
2022-11-24T07:03:38.546Z,26.02
2022-11-24T07:04:11.395Z,25.80
2022-11-24T07:04:43.271Z,25.80
2022-11-24T07:05:15.083Z,24.73
2022-11-24T07:05:47.350Z,27.60
2022-11-24T07:06:20.649Z,27.65
2022-11-24T07:06:52.489Z,24.90
2022-11-24T07:07:24.382Z,25.33
2022-11-24T07:07:56.495Z,26.37
2022-11-24T07:08:28.395Z,24.75
2022-11-24T07:09:00.487Z,25.42
2022-11-24T07:09:32.385Z,24.77
2022-11-24T07:10:04.610Z,25.67
2022-11-24T07:10:36.619Z,24.70
2022-11-24T07:11:11.361Z,24.33